createdAt,value
2022-10-01T00:02:00.281Z,11.43
2022-10-01T00:04:28.465Z,10.32
2022-10-01T00:06:59.315Z,9.02
2022-10-01T00:09:27.382Z,9.57
2022-10-01T00:11:56.669Z,9.07
2022-10-01T00:14:24.662Z,8.90
2022-10-01T00:16:53.046Z,9.90
2022-10-01T00:19:21.455Z,11.05
2022-10-01T00:21:49.518Z,12.30
2022-10-01T00:24:18.886Z,10.75
2022-10-01T00:26:48.149Z,9.48
2022-10-01T00:29:16.694Z,10.68
2022-10-01T00:31:44.855Z,9.77
2022-10-01T00:34:15.220Z,11.27
2022-10-01T00:36:43.440Z,9.88
2022-10-01T00:39:13.070Z,10.65
2022-10-01T00:41:43.417Z,11.88
2022-10-01T00:44:33.436Z,11.77
2022-10-01T00:47:07.162Z,13.57
2022-10-01T00:49:38.245Z,13.93
2022-10-01T00:52:10.658Z,13.43
2022-10-01T00:54:43.606Z,11.57
2022-10-01T00:57:16.127Z,12.10
2022-10-01T00:59:44.478Z,12.73
2022-10-01T01:02:12.671Z,15.98
2022-10-01T01:04:41.399Z,13.38
2022-10-01T01:07:10.755Z,11.77
2022-10-01T01:09:43.378Z,12.35
2022-10-01T01:12:27.919Z,15.13
2022-10-01T01:15:09.946Z,12.30
2022-10-01T01:17:43.561Z,13.05
2022-10-01T01:20:42.866Z,13.15
2022-10-01T01:23:37.895Z,15.13
2022-10-01T01:26:17.621Z,13.57
2022-10-01T01:28:50.869Z,13.30
2022-10-01T01:31:23.312Z,15.38
2022-10-01T01:33:55.202Z,11.55
2022-10-01T01:36:28.690Z,14.02
2022-10-01T01:39:00.889Z,13.65
2022-10-01T01:41:31.198Z,14.05
2022-10-01T01:44:03.726Z,13.57
2022-10-01T01:46:36.022Z,13.90
2022-10-01T01:49:05.912Z,14.98
2022-10-01T01:51:39.675Z,17.42
2022-10-01T01:54:07.961Z,15.27
2022-10-01T01:56:36.443Z,14.18
2022-10-01T01:59:08.492Z,13.40
2022-10-01T02:01:39.377Z,14.93
2022-10-01T02:04:16.085Z,15.23
2022-10-01T02:06:58.638Z,15.90
2022-10-01T02:09:32.091Z,15.60
2022-10-01T02:12:12.341Z,16.75
2022-10-01T02:14:49.146Z,17.15
2022-10-01T02:17:21.883Z,16.75
2022-10-01T02:19:58.303Z,16.23
2022-10-01T02:22:37.053Z,17.42
2022-10-01T02:25:07.695Z,20.10
2022-10-01T02:27:41.206Z,18.02
2022-10-01T02:30:13.249Z,16.63
2022-10-01T02:32:44.610Z,17.10
2022-10-01T02:35:15.545Z,17.70
2022-10-01T02:37:45.666Z,19.17
2022-10-01T02:40:17.125Z,18.65
2022-10-01T02:42:48.177Z,17.10
2022-10-01T02:45:22.905Z,22.30
2022-10-01T02:47:55.740Z,18.35
2022-10-01T02:50:27.791Z,19.35
2022-10-01T02:53:02.578Z,17.33
2022-10-01T02:55:34.205Z,20.77
2022-10-01T02:58:01.693Z,19.55
2022-10-01T03:00:31.338Z,18.08
2022-10-01T03:02:59.514Z,21.48
2022-10-01T03:05:28.182Z,24.98
2022-10-01T03:07:56.165Z,19.92
2022-10-01T03:10:24.265Z,20.83
2022-10-01T03:12:52.313Z,19.92
2022-10-01T03:15:21.027Z,18.65
2022-10-01T03:17:53.487Z,17.95
2022-10-01T03:20:22.386Z,26.05
2022-10-01T03:22:50.753Z,21.98
2022-10-01T03:25:18.775Z,22.23
2022-10-01T03:27:47.536Z,20.48
2022-10-01T03:30:15.562Z,21.23
2022-10-01T03:32:43.549Z,20.63
2022-10-01T03:35:12.953Z,17.58
2022-10-01T03:37:40.956Z,17.60
2022-10-01T03:40:09.846Z,20.15
2022-10-01T03:42:37.881Z,17.95
2022-10-01T03:45:06.223Z,17.02
2022-10-01T03:47:34.632Z,17.88
2022-10-01T03:50:02.658Z,18.83
2022-10-01T03:52:32.031Z,19.23
2022-10-01T03:55:00.710Z,19.95
2022-10-01T03:57:28.722Z,20.42
2022-10-01T03:59:56.743Z,17.02
2022-10-01T04:02:25.527Z,19.63
2022-10-01T04:04:53.598Z,18.00
2022-10-01T04:07:21.974Z,19.38
2022-10-01T04:09:51.844Z,16.52
2022-10-01T04:12:19.962Z,17.00
2022-10-01T04:14:47.965Z,16.30
2022-10-01T04:17:16.023Z,16.55
2022-10-01T04:19:44.135Z,17.27
2022-10-01T04:22:12.149Z,16.92
2022-10-01T04:24:40.171Z,15.93
2022-10-01T04:27:10.177Z,14.38
2022-10-01T04:29:40.314Z,14.95
2022-10-01T04:32:08.578Z,15.32
2022-10-01T04:34:54.457Z,13.45
2022-10-01T04:37:23.542Z,14.32
2022-10-01T04:39:52.037Z,14.77
2022-10-01T04:42:21.742Z,15.15
2022-10-01T04:44:50.118Z,16.13
2022-10-01T04:47:19.786Z,14.13
2022-10-01T04:50:02.303Z,14.05
2022-10-01T04:52:48.394Z,13.30
2022-10-01T04:55:19.455Z,14.55
2022-10-01T04:57:49.494Z,15.05
2022-10-01T05:00:19.650Z,15.02
2022-10-01T05:02:49.173Z,12.80
2022-10-01T05:05:18.502Z,12.25
2022-10-01T05:07:46.598Z,12.90
2022-10-01T05:10:17.098Z,13.60
2022-10-01T05:12:45.630Z,12.63
2022-10-01T05:15:16.226Z,12.07
2022-10-01T05:17:44.293Z,11.00
2022-10-01T05:20:17.994Z,13.48
2022-10-01T05:22:46.947Z,13.10
2022-10-01T05:25:15.610Z,12.38
2022-10-01T05:27:43.813Z,12.98
2022-10-01T05:30:20.124Z,13.00
2022-10-01T05:32:56.490Z,14.38
2022-10-01T05:35:25.345Z,12.80
2022-10-01T05:37:58.052Z,11.57
2022-10-01T05:40:27.455Z,10.98
2022-10-01T05:42:56.503Z,11.98
2022-10-01T05:45:26.366Z,13.68
2022-10-01T05:47:58.697Z,12.18
2022-10-01T05:50:27.179Z,13.48
2022-10-01T05:52:55.923Z,13.77
2022-10-01T05:55:25.170Z,14.32
2022-10-01T05:57:57.842Z,12.68
2022-10-01T06:00:29.364Z,10.57
2022-10-01T06:02:58.333Z,10.65
2022-10-01T06:05:27.381Z,11.27
2022-10-01T06:07:55.560Z,10.60
2022-10-01T06:10:24.621Z,10.43
2022-10-01T06:12:53.061Z,11.77
2022-10-01T06:15:21.166Z,9.77
2022-10-01T06:17:50.574Z,10.80
2022-10-01T06:20:19.449Z,8.82
2022-10-01T06:22:55.908Z,7.57
2022-10-01T06:25:24.235Z,8.05
2022-10-01T06:27:58.161Z,10.48
2022-10-01T06:30:27.538Z,9.70
2022-10-01T06:33:02.039Z,10.50
2022-10-01T06:35:30.257Z,9.10
2022-10-01T06:37:58.300Z,10.82
2022-10-01T06:40:26.519Z,10.15
2022-10-01T06:42:58.406Z,10.45
2022-10-01T06:45:26.697Z,9.18
2022-10-01T06:47:57.030Z,9.85
2022-10-01T06:50:30.451Z,10.25
2022-10-01T06:53:06.688Z,10.68
2022-10-01T06:55:43.295Z,11.15
2022-10-01T06:58:14.575Z,15.50
2022-10-01T07:00:43.920Z,12.50
2022-10-01T07:03:16.462Z,10.45
2022-10-01T07:05:46.014Z,10.88
2022-10-01T07:08:14.166Z,11.45
2022-10-01T07:10:44.096Z,11.70
2022-10-01T07:13:14.172Z,9.07
2022-10-01T07:15:42.270Z,13.13
2022-10-01T07:18:12.173Z,13.38
2022-10-01T07:20:42.176Z,12.20
2022-10-01T07:23:13.523Z,14.00
2022-10-01T07:25:42.515Z,10.93
2022-10-01T07:28:16.632Z,10.43
2022-10-01T07:30:48.354Z,10.20
2022-10-01T07:33:19.468Z,9.57
2022-10-01T07:35:49.352Z,13.13
2022-10-01T07:38:17.355Z,12.60
2022-10-01T07:40:45.430Z,14.80
2022-10-01T07:43:14.668Z,15.02
2022-10-01T07:45:43.010Z,13.82
2022-10-01T07:48:11.126Z,15.90
2022-10-01T07:50:39.230Z,13.95
2022-10-01T07:53:08.619Z,13.65
2022-10-01T07:55:36.675Z,13.15
2022-10-01T07:58:05.233Z,18.77
2022-10-01T08:00:36.257Z,13.27
2022-10-01T08:03:04.677Z,13.95
2022-10-01T08:05:34.379Z,15.30
2022-10-01T08:08:03.838Z,13.55
2022-10-01T08:10:35.968Z,13.75
2022-10-01T08:13:08.722Z,10.07
2022-10-01T08:15:37.310Z,17.65
2022-10-01T08:18:05.790Z,10.50
2022-10-01T08:20:35.514Z,13.40
2022-10-01T08:23:04.606Z,12.13
2022-10-01T08:25:34.445Z,16.90
2022-10-01T08:28:03.003Z,16.92
2022-10-01T08:30:31.453Z,13.52
2022-10-01T08:33:01.150Z,14.75
2022-10-01T08:35:31.389Z,13.25
2022-10-01T08:38:02.768Z,10.52
2022-10-01T08:40:31.432Z,12.85
2022-10-01T08:43:06.249Z,10.70
2022-10-01T08:45:41.689Z,14.48
2022-10-01T08:48:17.034Z,9.38
2022-10-01T08:50:53.811Z,13.13
2022-10-01T08:53:30.038Z,11.93
2022-10-01T08:55:59.221Z,9.10
2022-10-01T08:58:33.725Z,12.88
2022-10-01T09:01:01.915Z,8.52
2022-10-01T09:03:32.565Z,9.07
2022-10-01T09:06:13.109Z,8.25
2022-10-01T09:08:52.293Z,9.90
2022-10-01T09:11:34.208Z,11.30
2022-10-01T09:14:22.464Z,10.23
2022-10-01T09:17:01.658Z,11.68
2022-10-01T09:19:54.475Z,11.02
2022-10-01T09:22:30.826Z,12.10
2022-10-01T09:25:07.116Z,12.20
2022-10-01T09:27:35.566Z,11.65
2022-10-01T09:30:08.339Z,9.70
2022-10-01T09:32:43.011Z,10.65
2022-10-01T09:35:24.952Z,16.80
2022-10-01T09:37:58.289Z,12.50
2022-10-01T09:40:33.954Z,11.32
2022-10-01T09:43:02.350Z,11.38
2022-10-01T09:45:32.236Z,14.38
2022-10-01T09:48:06.395Z,14.50
2022-10-01T09:50:41.254Z,12.05
2022-10-01T09:53:17.755Z,13.45
2022-10-01T09:55:52.310Z,11.55
2022-10-01T09:58:24.284Z,15.30
2022-10-01T10:00:56.558Z,20.08
2022-10-01T10:03:26.337Z,11.73
2022-10-01T10:05:55.090Z,13.63
2022-10-01T10:08:29.035Z,15.00
2022-10-01T10:11:00.684Z,16.92
2022-10-01T10:13:35.266Z,12.88
2022-10-01T10:16:16.732Z,17.90
2022-10-01T10:18:52.107Z,11.05
2022-10-01T10:21:23.533Z,11.85
2022-10-01T10:23:53.483Z,14.23
2022-10-01T10:26:23.487Z,14.50
2022-10-01T10:28:51.486Z,16.08
2022-10-01T10:31:24.166Z,18.42
2022-10-01T10:33:57.924Z,15.40
2022-10-01T10:36:30.044Z,12.32
2022-10-01T10:38:59.999Z,13.45
2022-10-01T10:41:30.196Z,12.13
2022-10-01T10:44:03.600Z,12.75
2022-10-01T10:46:36.107Z,16.02
2022-10-01T10:49:08.933Z,16.17
2022-10-01T10:51:48.718Z,11.95
2022-10-01T10:54:21.919Z,9.65
2022-10-01T10:57:00.730Z,10.80
2022-10-01T10:59:33.143Z,10.60
2022-10-01T11:02:05.670Z,10.05
2022-10-01T11:04:42.693Z,15.50
2022-10-01T11:07:13.423Z,12.27
2022-10-01T11:10:21.534Z,10.50
2022-10-01T11:13:10.206Z,13.95
2022-10-01T11:15:52.779Z,12.65
2022-10-01T11:18:39.765Z,11.98
2022-10-01T11:21:40.390Z,10.88
2022-10-01T11:24:29.621Z,9.65
2022-10-01T11:27:04.722Z,9.23
2022-10-01T11:29:44.978Z,9.52
2022-10-01T11:32:23.346Z,9.82
2022-10-01T11:35:16.947Z,7.88
2022-10-01T11:37:57.402Z,7.90
2022-10-01T11:40:30.125Z,6.68
2022-10-01T11:43:03.969Z,10.75
2022-10-01T11:45:36.229Z,7.25
2022-10-01T11:48:08.769Z,9.95
2022-10-01T11:50:43.340Z,3.70
2022-10-01T11:53:16.458Z,5.57
2022-10-01T11:56:07.453Z,8.48
2022-10-01T11:58:55.098Z,6.43
2022-10-01T12:01:39.129Z,6.18
2022-10-01T12:04:18.463Z,5.88
2022-10-01T12:06:55.174Z,8.52
2022-10-01T12:09:29.863Z,4.72
2022-10-01T12:12:02.345Z,7.78
2022-10-01T12:14:34.966Z,5.60
2022-10-01T12:17:13.221Z,5.38
2022-10-01T12:19:46.431Z,5.97
2022-10-01T12:22:24.569Z,5.90
2022-10-01T12:24:53.746Z,3.50
2022-10-01T12:27:51.481Z,5.13
2022-10-01T12:30:22.108Z,7.10
2022-10-01T12:33:09.056Z,5.43
2022-10-01T12:35:57.142Z,7.20
2022-10-01T12:38:38.380Z,6.80
2022-10-01T12:41:19.342Z,7.72
2022-10-01T12:44:20.762Z,4.55
2022-10-01T12:47:00.233Z,5.45
2022-10-01T12:49:36.982Z,5.75
2022-10-01T12:52:15.628Z,4.40
2022-10-01T12:54:58.459Z,9.73
2022-10-01T12:57:37.909Z,9.73
2022-10-01T13:00:12.103Z,9.32
2022-10-01T13:02:57.943Z,10.38
2022-10-01T13:05:34.534Z,10.05
2022-10-01T13:08:29.741Z,12.73
2022-10-01T13:11:08.833Z,10.23
2022-10-01T13:13:38.591Z,15.55
2022-10-01T13:16:14.127Z,9.65
2022-10-01T13:18:54.417Z,11.45
2022-10-01T13:21:32.368Z,8.25
2022-10-01T13:24:05.814Z,11.77
2022-10-01T13:26:42.305Z,17.08
2022-10-01T13:29:26.020Z,11.23
2022-10-01T13:31:57.994Z,11.95
2022-10-01T13:34:36.138Z,10.40
2022-10-01T13:37:13.174Z,9.82
2022-10-01T13:39:42.250Z,13.43
2022-10-01T13:42:21.099Z,12.35
2022-10-01T13:44:56.431Z,15.90
2022-10-01T13:47:25.649Z,12.30
2022-10-01T13:49:56.969Z,16.38
2022-10-01T13:52:25.323Z,17.80
2022-10-01T13:54:55.505Z,12.63
2022-10-01T13:57:34.240Z,14.00
2022-10-01T14:00:07.782Z,17.50
2022-10-01T14:02:40.765Z,12.38
2022-10-01T14:05:32.091Z,17.00
2022-10-01T14:08:11.906Z,14.93
2022-10-01T14:11:09.322Z,14.05
2022-10-01T14:14:04.570Z,11.82
2022-10-01T14:16:37.610Z,15.02
2022-10-01T14:19:06.003Z,23.45
2022-10-01T14:21:44.801Z,11.82
2022-10-01T14:24:22.108Z,15.63
2022-10-01T14:26:54.617Z,17.80
2022-10-01T14:29:37.887Z,16.45
2022-10-01T14:32:20.945Z,15.98
2022-10-01T14:35:07.447Z,16.65
2022-10-01T14:37:39.063Z,15.13
2022-10-01T14:40:16.795Z,14.13
2022-10-01T14:42:44.938Z,11.25
2022-10-01T14:45:20.058Z,13.18
2022-10-01T14:47:49.764Z,15.43
2022-10-01T14:50:21.415Z,12.25
2022-10-01T14:52:51.575Z,15.45
2022-10-01T14:55:22.742Z,13.85
2022-10-01T14:57:53.698Z,13.85
2022-10-01T15:00:26.042Z,12.65
2022-10-01T15:03:03.050Z,14.60
2022-10-01T15:05:32.898Z,9.88
2022-10-01T15:08:10.984Z,13.32
2022-10-01T15:10:43.041Z,10.93
2022-10-01T15:13:18.575Z,11.77
2022-10-01T15:15:48.101Z,12.40
2022-10-01T15:18:18.161Z,11.98
2022-10-01T15:20:57.578Z,13.05
2022-10-01T15:23:27.549Z,9.93
2022-10-01T15:25:57.466Z,9.45
2022-10-01T15:28:31.917Z,7.20
2022-10-01T15:31:03.456Z,9.10
2022-10-01T15:33:33.409Z,7.75
2022-10-01T15:36:05.080Z,8.18
2022-10-01T15:38:34.339Z,8.93
2022-10-01T15:41:29.947Z,9.40
2022-10-01T15:43:53.215Z,9.25
2022-10-01T15:46:29.309Z,6.93
2022-10-01T15:49:18.521Z,8.05
2022-10-01T15:52:11.751Z,9.82
2022-10-01T15:54:41.627Z,5.30
2022-10-01T15:57:11.349Z,8.02
2022-10-01T15:59:41.849Z,6.68
2022-10-01T16:02:19.670Z,14.85
2022-10-01T16:04:48.494Z,5.63
2022-10-01T16:07:29.698Z,13.60
2022-10-01T16:09:59.054Z,10.65
2022-10-01T16:12:29.143Z,12.32
2022-10-01T16:15:01.264Z,14.85
2022-10-01T16:17:33.281Z,11.48
2022-10-01T16:20:21.750Z,15.45
2022-10-01T16:22:50.196Z,14.27
2022-10-01T16:25:33.869Z,11.82
2022-10-01T16:28:04.545Z,14.40
2022-10-01T16:30:34.411Z,12.32
2022-10-01T16:33:06.197Z,12.10
2022-10-01T16:35:36.100Z,10.88
2022-10-01T16:38:06.786Z,14.07
2022-10-01T16:40:40.313Z,10.65
2022-10-01T16:43:09.083Z,13.13
2022-10-01T16:45:40.410Z,17.33
2022-10-01T16:48:15.725Z,10.40
2022-10-01T16:50:46.081Z,9.43
2022-10-01T16:53:15.723Z,10.90
2022-10-01T16:55:44.731Z,14.63
2022-10-01T16:58:13.713Z,10.75
2022-10-01T17:00:42.002Z,16.13
2022-10-01T17:03:17.316Z,14.52
2022-10-01T17:05:45.701Z,14.77
2022-10-01T17:08:14.612Z,15.52
2022-10-01T17:10:45.954Z,11.48
2022-10-01T17:13:14.622Z,14.90
2022-10-01T17:15:51.832Z,18.02
2022-10-01T17:18:22.505Z,22.70
2022-10-01T17:20:51.294Z,18.30
2022-10-01T17:23:21.055Z,16.95
2022-10-01T17:25:49.453Z,18.25
2022-10-01T17:28:19.992Z,21.77
2022-10-01T17:30:49.884Z,16.08
2022-10-01T17:33:20.274Z,23.63
2022-10-01T17:35:54.553Z,15.75
2022-10-01T17:38:23.851Z,22.02
2022-10-01T17:40:56.452Z,24.38
2022-10-01T17:43:25.114Z,20.20
2022-10-01T17:45:57.372Z,20.77
2022-10-01T17:48:26.283Z,13.77
2022-10-01T17:51:04.011Z,20.75
2022-10-01T17:53:36.150Z,26.58
2022-10-01T17:56:09.090Z,18.65
2022-10-01T17:58:40.607Z,19.58
2022-10-01T18:01:21.219Z,17.83
2022-10-01T18:03:55.081Z,21.60
2022-10-01T18:06:39.773Z,23.85
2022-10-01T18:09:11.329Z,21.63
2022-10-01T18:16:03.184Z,22.73
2022-10-01T18:21:25.591Z,17.60
2022-10-01T18:24:04.139Z,21.00
2022-10-01T18:26:33.599Z,22.77
2022-10-01T18:29:02.227Z,23.30
2022-10-01T18:31:35.695Z,20.80
2022-10-01T18:34:07.112Z,18.70
2022-10-01T18:36:43.749Z,18.05
2022-10-01T18:39:18.794Z,21.17
2022-10-01T18:41:46.815Z,22.88
2022-10-01T18:44:20.288Z,22.70
2022-10-01T18:47:01.114Z,22.15
2022-10-01T18:49:53.565Z,21.50
2022-10-01T18:52:34.257Z,28.70
2022-10-01T18:55:25.339Z,25.75
2022-10-01T18:58:13.739Z,22.17
2022-10-01T19:00:53.262Z,22.10
2022-10-01T19:03:37.202Z,23.20
2022-10-01T19:06:25.251Z,22.83
2022-10-01T19:09:13.871Z,20.70
2022-10-01T19:11:52.152Z,21.50
2022-10-01T19:14:42.566Z,22.33
2022-10-01T19:17:21.886Z,22.10
2022-10-01T19:28:40.457Z,20.05
2022-10-01T19:31:18.775Z,22.50
2022-10-01T19:34:37.736Z,21.88
2022-10-01T19:37:13.805Z,19.88
2022-10-01T19:40:42.888Z,18.85
2022-10-01T19:44:02.017Z,28.60
2022-10-01T19:50:21.178Z,20.23
2022-10-01T19:52:57.335Z,27.98
2022-10-01T19:56:23.958Z,19.85
2022-10-01T19:59:11.672Z,20.05
2022-10-01T20:02:03.382Z,23.95
2022-10-01T20:08:55.679Z,20.25
2022-10-01T20:11:30.602Z,18.30
2022-10-01T20:14:45.711Z,19.55
2022-10-01T20:17:23.281Z,17.83
2022-10-01T20:19:59.277Z,19.02
2022-10-01T20:22:35.083Z,18.58
2022-10-01T20:25:11.767Z,18.48
2022-10-01T20:27:52.168Z,18.52
2022-10-01T20:30:24.030Z,24.98
2022-10-01T20:33:01.589Z,18.13
2022-10-01T20:35:39.996Z,21.35
2022-10-01T20:38:35.845Z,22.83
2022-10-01T20:41:13.074Z,24.27
2022-10-01T20:43:49.332Z,19.48
2022-10-01T20:46:22.651Z,20.30
2022-10-01T20:48:59.248Z,20.02
2022-10-01T20:51:37.152Z,17.55
2022-10-01T20:54:11.394Z,25.83
2022-10-01T20:56:44.983Z,22.52
2022-10-01T20:59:19.385Z,20.58
2022-10-01T21:01:55.226Z,20.33
2022-10-01T21:04:28.630Z,17.38
2022-10-01T21:07:02.432Z,22.38
2022-10-01T21:09:35.275Z,20.33
2022-10-01T21:12:08.357Z,14.75
2022-10-01T21:14:48.337Z,18.90
2022-10-01T21:17:34.424Z,21.55
2022-10-01T21:20:20.314Z,17.25
2022-10-01T21:23:05.478Z,19.88
2022-10-01T21:29:27.430Z,24.70
2022-10-01T21:32:09.226Z,23.25
2022-10-01T21:34:50.751Z,22.55
2022-10-01T21:37:28.551Z,16.75
2022-10-01T21:40:05.079Z,25.40
2022-10-01T21:43:11.536Z,17.83
2022-10-01T21:45:44.470Z,15.82
2022-10-01T21:48:26.251Z,16.90
2022-10-01T21:50:57.293Z,13.90
2022-10-01T21:53:48.413Z,17.77
2022-10-01T21:56:44.627Z,22.42
2022-10-01T21:59:31.010Z,15.32
2022-10-01T22:02:10.881Z,15.20
2022-10-01T22:04:52.131Z,17.08
2022-10-01T22:07:26.256Z,16.20
2022-10-01T22:10:33.533Z,13.65
2022-10-01T22:13:06.798Z,12.55
2022-10-01T22:15:40.926Z,10.57
2022-10-01T22:18:19.979Z,10.82
2022-10-01T22:20:48.775Z,10.52
2022-10-01T22:23:18.775Z,14.48
2022-10-01T22:25:52.548Z,15.13
2022-10-01T22:28:26.398Z,16.80
2022-10-01T22:30:56.673Z,9.70
2022-10-01T22:33:33.660Z,14.90
2022-10-01T22:36:09.025Z,13.40
2022-10-01T22:38:41.895Z,16.02
2022-10-01T22:41:14.334Z,13.35
2022-10-01T22:43:45.720Z,13.10
2022-10-01T22:46:40.285Z,10.57
2022-10-01T22:49:19.989Z,18.23
2022-10-01T22:51:57.575Z,13.50
2022-10-01T22:54:39.716Z,14.02
2022-10-01T22:57:24.378Z,10.48
2022-10-01T23:00:03.142Z,8.77
2022-10-01T23:02:37.073Z,13.00
2022-10-01T23:05:19.018Z,15.30
2022-10-01T23:07:57.063Z,15.15
2022-10-01T23:10:31.733Z,9.35
2022-10-01T23:13:13.734Z,10.60
2022-10-01T23:15:49.122Z,9.48
2022-10-01T23:18:29.639Z,12.43
2022-10-01T23:21:10.619Z,8.60
2022-10-01T23:23:39.385Z,10.48
2022-10-01T23:26:23.307Z,10.30
2022-10-01T23:29:03.359Z,12.25
2022-10-01T23:31:40.699Z,9.70
2022-10-01T23:34:24.688Z,9.07
2022-10-01T23:37:05.778Z,10.90
2022-10-01T23:39:48.333Z,11.85
2022-10-01T23:42:28.410Z,15.07
2022-10-01T23:45:05.964Z,9.90
2022-10-01T23:47:43.357Z,12.18
2022-10-01T23:50:22.766Z,11.40
2022-10-01T23:53:00.792Z,11.98
2022-10-01T23:55:56.122Z,12.82
2022-10-01T23:58:25.041Z,12.98
